Time;durP1;ratioP1;P1;durP2;ratioP2;P2;SDS_P1;SDS_P2;PMS_P1;PMS_P2;Temp;Humidity;BMP_temperature;BMP_pressure;BME280_temperature;BME280_humidity;BME280_pressure;Samples;Min_cycle;Max_cycle;Signal;HPM_P1;HPM_P2
2021/06/11 00:04:05;;;;;;;0.10;0.10;;;;;;;12.00;90.83;102037.00;10529069;28;20031;-63
2021/06/11 00:09:07;;;;;;;0.10;0.10;;;;;;;12.04;90.18;102029.53;10527403;28;20012;-62
2021/06/11 00:14:07;;;;;;;0.10;0.10;;;;;;;12.03;90.27;102027.84;10528866;28;20314;-66
2021/06/11 00:19:08;;;;;;;0.10;0.10;;;;;;;12.07;91.28;102039.97;10529222;28;20068;-60
2021/06/11 00:24:08;;;;;;;0.10;0.10;;;;;;;12.09;91.28;102037.16;10517809;28;20026;-59
2021/06/11 00:29:08;;;;;;;0.10;0.10;;;;;;;11.99;88.56;102031.81;10520732;28;20269;-58
2021/06/11 00:34:09;;;;;;;0.10;0.10;;;;;;;11.96;90.65;102029.41;10527279;28;20266;-62
2021/06/11 00:39:09;;;;;;;0.00;0.00;;;;;;;12.07;92.11;102023.06;10536407;28;20118;-61
2021/06/11 00:44:09;;;;;;;0.10;0.10;;;;;;;12.10;91.18;102018.31;10535953;28;20020;-59
2021/06/11 00:49:10;;;;;;;0.10;0.10;;;;;;;12.12;91.56;102018.16;10535834;28;20027;-62
2021/06/11 00:54:10;;;;;;;0.10;0.10;;;;;;;12.18;92.47;102023.78;10535455;28;20032;-62
2021/06/11 00:59:11;;;;;;;0.10;0.10;;;;;;;12.24;91.93;102020.53;10528353;28;20361;-59
2021/06/11 01:04:12;;;;;;;0.00;0.00;;;;;;;12.26;91.80;102023.09;10534952;28;20086;-59
2021/06/11 01:09:13;;;;;;;0.10;0.10;;;;;;;12.34;92.59;102022.41;10527955;28;20447;-59
2021/06/11 01:14:13;;;;;;;0.10;0.10;;;;;;;12.30;92.17;102020.97;10499993;28;20258;-62
2021/06/11 01:19:14;;;;;;;0.10;0.10;;;;;;;12.28;90.90;102023.81;10494218;28;20062;-63
2021/06/11 01:24:20;;;;;;;0.10;0.10;;;;;;;12.11;90.18;102022.66;10529775;28;20103;-62
2021/06/11 01:29:25;;;;;;;0.10;0.10;;;;;;;11.87;87.55;102024.88;10531021;28;20395;-64
2021/06/11 01:34:29;;;;;;;0.10;0.10;;;;;;;11.61;89.37;102025.38;10533843;28;20032;-61
2021/06/11 01:39:32;;;;;;;0.10;0.10;;;;;;;11.49;89.20;102021.97;10533599;28;20016;-57
2021/06/11 01:44:37;;;;;;;0.10;0.10;;;;;;;11.42;90.10;102019.97;10527268;28;20417;-57
2021/06/11 01:49:38;;;;;;;0.10;0.10;;;;;;;11.32;90.14;102018.13;10498977;28;20021;-63
2021/06/11 01:54:42;;;;;;;0.03;0.03;;;;;;;11.25;89.65;102019.63;10505451;22;20024;-57
2021/06/11 01:59:44;;;;;;;0.10;0.10;;;;;;;11.19;89.40;102012.16;10467839;28;20372;-60
2021/06/11 02:04:44;;;;;;;0.03;0.03;;;;;;;11.12;89.09;102016.34;10453023;28;20025;-59
2021/06/11 02:09:47;;;;;;;0.00;0.00;;;;;;;11.04;90.15;102013.50;10449105;28;20116;-60
2021/06/11 02:14:48;;;;;;;0.10;0.10;;;;;;;10.95;89.78;102015.16;10412306;28;20030;-59
2021/06/11 02:19:49;;;;;;;0.10;0.10;;;;;;;10.85;89.76;102012.44;10425213;28;20028;-59
2021/06/11 02:24:49;;;;;;;0.00;0.00;;;;;;;10.79;90.02;102014.78;10443599;28;20037;-60
2021/06/11 02:29:50;;;;;;;0.07;0.07;;;;;;;10.77;91.63;102011.41;10411809;28;20490;-60
2021/06/11 02:34:50;;;;;;;0.00;0.00;;;;;;;10.82;90.99;102020.72;10411567;28;20280;-60
2021/06/11 02:39:50;;;;;;;0.10;0.10;;;;;;;10.80;90.87;102008.50;10451928;28;20025;-60
2021/06/11 02:44:53;;;;;;;0.03;0.03;;;;;;;10.79;90.69;102012.09;10451452;28;20473;-59
2021/06/11 02:49:56;;;;;;;0.10;0.10;;;;;;;10.74;90.77;102015.19;10447766;28;20017;-59
2021/06/11 02:55:01;;;;;;;0.10;0.10;;;;;;;10.68;91.46;102013.03;10451123;28;20033;-59
2021/06/11 03:00:07;;;;;;;0.10;0.10;;;;;;;10.64;90.83;102012.44;10451981;28;20025;-59
2021/06/11 03:05:09;;;;;;;0.10;0.10;;;;;;;10.66;90.66;102004.34;10444594;28;20099;-60
2021/06/11 03:10:11;;;;;;;0.10;0.10;;;;;;;10.72;91.23;102002.97;10450147;28;20013;-59
2021/06/11 03:15:13;;;;;;;0.10;0.10;;;;;;;10.87;91.36;102010.47;10436782;28;20056;-59
2021/06/11 03:20:20;;;;;;;0.10;0.10;;;;;;;11.06;90.33;102006.22;10411437;28;20032;-58
2021/06/11 03:25:28;;;;;;;0.10;0.10;;;;;;;11.26;89.10;102013.34;10441659;28;20048;-59
2021/06/11 03:30:29;;;;;;;0.10;0.10;;;;;;;11.66;88.12;102007.09;10449788;28;20078;-59
2021/06/11 03:35:42;;;;;;;0.00;0.00;;;;;;;12.33;84.77;102000.16;10450391;28;20109;-57
2021/06/11 03:40:45;;;;;;;0.08;0.08;;;;;;;12.94;83.13;102006.91;10445020;28;20033;-60
2021/06/11 03:45:47;;;;;;;0.10;0.10;;;;;;;13.57;81.32;102004.41;10447033;28;20480;-59
2021/06/11 03:50:50;;;;;;;0.10;0.10;;;;;;;14.17;79.04;102003.84;10448940;28;20683;-59
2021/06/11 03:55:58;;;;;;;0.10;0.10;;;;;;;14.55;77.39;101998.34;10418502;28;20037;-60
2021/06/11 04:01:01;;;;;;;0.10;0.10;;;;;;;15.21;77.47;101994.16;10404291;28;20541;-60
2021/06/11 04:06:06;;;;;;;0.10;0.10;;;;;;;16.00;74.93;101995.59;10446416;28;20032;-60
2021/06/11 04:11:15;;;;;;;0.10;0.10;;;;;;;16.40;73.30;101983.16;10451761;28;20013;-60
2021/06/11 04:16:23;;;;;;;0.10;0.10;;;;;;;17.24;73.31;101980.97;10453156;28;20021;-60
2021/06/11 04:21:25;;;;;;;0.10;0.10;;;;;;;18.53;70.77;101973.00;10436835;28;20472;-61
2021/06/11 04:26:27;;;;;;;0.10;0.10;;;;;;;19.55;67.56;101974.19;10454606;28;20472;-60
2021/06/11 04:31:28;;;;;;;0.10;0.10;;;;;;;20.39;65.35;101978.97;10455971;28;20153;-61
2021/06/11 04:36:28;;;;;;;0.10;0.10;;;;;;;21.32;63.20;101976.84;10439456;28;20028;-60
2021/06/11 04:41:29;;;;;;;0.10;0.10;;;;;;;21.82;61.74;101972.03;10455572;28;20438;-60
2021/06/11 04:46:30;;;;;;;0.10;0.10;;;;;;;22.73;58.80;101971.41;10442019;28;20351;-61
2021/06/11 04:51:30;;;;;;;0.10;0.10;;;;;;;23.36;57.07;101968.94;10414661;28;20036;-60
2021/06/11 04:56:31;;;;;;;0.10;0.10;;;;;;;23.90;55.56;101975.72;10436015;28;20025;-62
2021/06/11 05:01:31;;;;;;;0.10;0.10;;;;;;;24.36;52.80;101965.53;10413667;28;20025;-62
2021/06/11 05:06:32;;;;;;;0.10;0.10;;;;;;;25.15;52.27;101969.34;10445505;28;20452;-61
2021/06/11 05:11:32;;;;;;;0.10;0.10;;;;;;;25.52;50.10;101961.13;10415350;28;20033;-61
2021/06/11 05:16:32;;;;;;;0.10;0.10;;;;;;;26.16;50.07;101961.41;10440411;28;20047;-61
2021/06/11 05:21:33;;;;;;;0.10;0.10;;;;;;;26.73;47.26;101963.56;10453705;28;20021;-62
2021/06/11 05:26:33;;;;;;;0.10;0.10;;;;;;;26.83;46.81;101964.63;10454456;28;20407;-61
2021/06/11 05:31:34;;;;;;;0.10;0.10;;;;;;;27.58;45.89;101957.41;10436551;28;20017;-60
2021/06/11 05:36:34;;;;;;;0.10;0.10;;;;;;;28.27;43.18;101948.16;10420423;28;20028;-61
2021/06/11 05:41:34;;;;;;;0.10;0.10;;;;;;;28.83;43.36;101955.31;10454172;28;20090;-63
2021/06/11 05:46:35;;;;;;;0.10;0.10;;;;;;;29.11;41.82;101956.22;10453832;28;20021;-62
2021/06/11 05:51:35;;;;;;;0.10;0.10;;;;;;;29.52;41.42;101949.25;10446649;28;20029;-63
2021/06/11 05:56:35;;;;;;;0.10;0.10;;;;;;;30.02;40.78;101950.03;10443192;28;20444;-63
2021/06/11 06:01:36;;;;;;;0.10;0.10;;;;;;;30.52;39.45;101939.66;10435355;28;20021;-62
2021/06/11 06:06:36;;;;;;;0.10;0.10;;;;;;;30.55;38.24;101945.44;10421901;28;20031;-63
2021/06/11 06:11:36;;;;;;;0.10;0.10;;;;;;;30.34;38.16;101950.00;10412494;28;20024;-63
2021/06/11 06:16:37;;;;;;;;;;;;;;;30.66;37.38;101938.91;10431778;28;20063;-63
2021/06/11 06:21:37;;;;;;;0.10;0.10;;;;;;;30.73;38.16;101935.09;10451292;28;20011;-63
2021/06/11 06:26:37;;;;;;;0.10;0.10;;;;;;;30.93;36.45;101931.63;10452131;28;20025;-63
2021/06/11 06:31:38;;;;;;;0.10;0.10;;;;;;;31.22;34.99;101930.06;10450683;28;20407;-63
2021/06/11 06:36:38;;;;;;;0.10;0.10;;;;;;;30.96;36.53;101922.84;10435937;28;20498;-63
2021/06/11 06:41:38;;;;;;;0.10;0.10;;;;;;;31.04;36.23;101928.66;10450808;28;20033;-63
2021/06/11 06:46:39;;;;;;;0.10;0.10;;;;;;;30.92;32.83;101927.22;10451220;28;20146;-64
2021/06/11 06:51:39;;;;;;;0.10;0.10;;;;;;;30.76;34.86;101938.13;10450987;28;20074;-63
2021/06/11 06:56:40;;;;;;;0.10;0.10;;;;;;;31.13;33.46;101929.78;10450831;28;20036;-64
2021/06/11 07:01:40;;;;;;;0.10;0.10;;;;;;;31.35;32.53;101937.00;10451304;28;20052;-64
2021/06/11 07:06:41;;;;;;;0.10;0.10;;;;;;;31.26;32.11;101935.84;10457762;28;20089;-64
2021/06/11 07:11:41;;;;;;;0.10;0.10;;;;;;;31.51;34.97;101933.19;10448777;28;20248;-63
2021/06/11 07:16:42;;;;;;;0.10;0.10;;;;;;;31.95;32.19;101923.59;10446310;28;20480;-64
2021/06/11 07:21:43;;;;;;;0.10;0.10;;;;;;;32.12;35.32;101935.13;10454486;28;20385;-63
2021/06/11 07:26:43;;;;;;;0.10;0.10;;;;;;;31.93;32.08;101931.28;10453516;28;20032;-63
2021/06/11 07:31:44;;;;;;;0.10;0.10;;;;;;;31.93;33.80;101931.28;10451207;28;20463;-64
2021/06/11 07:36:46;;;;;;;0.10;0.10;;;;;;;32.08;33.20;101935.97;10450731;28;20033;-64
2021/06/11 07:41:46;;;;;;;0.10;0.10;;;;;;;32.19;33.10;101935.66;10447982;28;20032;-63
2021/06/11 07:46:46;;;;;;;0.10;0.10;;;;;;;32.31;30.92;101937.31;10442697;28;20013;-64
2021/06/11 07:51:47;;;;;;;0.10;0.10;;;;;;;32.13;33.64;101936.78;10412371;28;20026;-64
2021/06/11 07:56:47;;;;;;;0.10;0.10;;;;;;;32.27;33.11;101938.97;10459919;22;20050;-64
2021/06/11 08:01:48;;;;;;;0.10;0.10;;;;;;;32.09;33.27;101943.16;10505498;28;20058;-62
2021/06/11 08:06:48;;;;;;;0.10;0.10;;;;;;;32.00;31.80;101932.69;10503943;28;20042;-64
2021/06/11 08:11:48;;;;;;;0.10;0.10;;;;;;;31.70;34.32;101929.88;10492388;28;20020;-65
2021/06/11 08:16:49;;;;;;;0.10;0.10;;;;;;;31.65;33.30;101927.97;10506530;28;20028;-62
2021/06/11 08:21:49;;;;;;;0.10;0.10;;;;;;;31.64;32.85;101933.75;10513581;28;20413;-65
2021/06/11 08:26:49;;;;;;;;;;;;;;;31.48;36.46;101936.47;10502152;28;20032;-65
2021/06/11 08:31:51;;;;;;;0.10;0.10;;;;;;;31.43;35.50;101924.63;10528047;28;19912;-63
2021/06/11 08:36:51;;;;;;;0.10;0.10;;;;;;;31.60;34.33;101941.72;10528828;28;20040;-65
2021/06/11 08:41:52;;;;;;;0.10;0.10;;;;;;;31.18;32.84;101930.88;10528545;28;20066;-65
2021/06/11 08:46:53;;;;;;;0.10;0.10;;;;;;;31.11;35.88;101929.22;10528725;28;20380;-63
2021/06/11 08:51:59;;;;;;;0.10;0.10;;;;;;;31.14;35.09;101925.09;10497276;28;20482;-67
2021/06/11 08:56:59;;;;;;;0.10;0.10;;;;;;;30.95;34.00;101927.53;10521263;28;20344;-66
2021/06/11 09:02:01;;;;;;;0.10;0.10;;;;;;;30.89;36.38;101926.69;10523525;28;20024;-63
2021/06/11 09:07:20;;;;;;;;;;;;;;;30.88;37.40;101921.44;10536058;28;20104;-65
2021/06/11 09:12:38;;;;;;;0.10;0.10;;;;;;;30.50;35.50;101920.69;10535068;28;20412;-61
2021/06/11 09:17:49;;;;;;;0.10;0.10;;;;;;;30.01;38.39;101923.63;10532766;28;20099;-62
2021/06/11 09:22:52;;;;;;;0.00;0.00;;;;;;;29.94;38.69;101925.78;10501431;28;20431;-66
2021/06/11 09:28:01;;;;;;;0.10;0.10;;;;;;;29.95;38.10;101928.25;10492933;28;20410;-65
2021/06/11 09:33:14;;;;;;;0.10;0.10;;;;;;;30.31;39.54;101924.94;10492650;28;20047;-64
2021/06/11 09:38:25;;;;;;;0.10;0.10;;;;;;;30.29;37.03;101918.91;10492421;28;20154;-64
2021/06/11 09:43:27;;;;;;;0.10;0.10;;;;;;;29.64;37.19;101932.69;10500396;28;20027;-65
2021/06/11 09:48:28;;;;;;;0.10;0.10;;;;;;;29.15;40.66;101929.09;10515084;28;20019;-63
2021/06/11 09:53:29;;;;;;;;;;;;;;;28.48;40.46;101922.78;10515607;28;20027;-64
2021/06/11 09:58:34;;;;;;;0.10;0.10;;;;;;;28.16;41.76;101922.53;10510090;28;19920;-64
2021/06/11 10:03:38;;;;;;;0.10;0.10;;;;;;;27.60;45.61;101918.81;10491804;28;20034;-67
2021/06/11 10:08:40;;;;;;;0.10;0.10;;;;;;;28.01;46.22;101914.06;10492556;28;20090;-61
2021/06/11 10:13:42;;;;;;;0.10;0.10;;;;;;;28.29;44.11;101919.44;10493543;28;20059;-63
2021/06/11 10:18:42;;;;;;;0.10;0.10;;;;;;;28.19;40.67;101916.56;10497317;28;20029;-61
2021/06/11 10:23:43;;;;;;;0.10;0.10;;;;;;;27.85;44.08;101919.31;10512830;28;20032;-64
2021/06/11 10:28:49;;;;;;;0.10;0.10;;;;;;;28.27;43.11;101913.38;10532040;28;20428;-64
2021/06/11 10:34:00;;;;;;;0.10;0.10;;;;;;;29.05;45.02;101905.94;10528315;28;20469;-62
2021/06/11 10:39:22;;;;;;;0.10;0.10;;;;;;;29.30;38.52;101910.91;10489809;28;20479;-66
2021/06/11 10:44:34;;;;;;;0.10;0.10;;;;;;;28.87;41.95;101892.56;10487255;28;20099;-66
2021/06/11 10:49:55;;;;;;;0.10;0.10;;;;;;;29.02;42.73;101895.50;10486368;28;20043;-64
2021/06/11 10:54:55;;;;;;;0.10;0.10;;;;;;;29.69;42.89;101888.78;10476565;28;20107;-64
2021/06/11 10:59:57;;;;;;;0.10;0.10;;;;;;;30.01;41.53;101886.00;10488533;28;20115;-63
2021/06/11 11:04:58;;;;;;;;;;;;;;;29.87;41.19;101881.22;10490185;28;20457;-65
2021/06/11 11:10:08;;;;;;;0.10;0.10;;;;;;;29.70;41.60;101882.22;10471717;28;19943;-64
2021/06/11 11:15:29;;;;;;;0.10;0.10;;;;;;;29.66;39.38;101880.25;10503191;28;20059;-65
2021/06/11 11:20:31;;;;;;;0.10;0.10;;;;;;;29.87;42.38;101870.22;10523716;28;20494;-63
2021/06/11 11:25:32;;;;;;;0.10;0.10;;;;;;;29.31;40.84;101870.56;10496431;28;20020;-64
2021/06/11 11:30:33;;;;;;;0.10;0.10;;;;;;;28.97;42.32;101878.13;10489154;28;20153;-65
2021/06/11 11:35:37;;;;;;;0.00;0.00;;;;;;;28.34;43.21;101864.72;10524931;28;20064;-61
2021/06/11 11:40:41;;;;;;;0.10;0.10;;;;;;;28.16;43.83;101870.50;10513800;28;20021;-65
2021/06/11 11:45:43;;;;;;;0.10;0.10;;;;;;;28.29;44.10;101878.34;10496058;28;20024;-64
2021/06/11 11:50:43;;;;;;;0.10;0.10;;;;;;;28.56;43.38;101863.94;10495860;28;20024;-63
2021/06/11 11:55:44;;;;;;;0.10;0.10;;;;;;;28.16;43.04;101860.38;10495410;28;20457;-65
2021/06/11 12:00:45;;;;;;;0.10;0.10;;;;;;;27.43;43.82;101851.25;10494815;28;20017;-65
2021/06/11 12:05:45;;;;;;;0.10;0.10;;;;;;;27.78;47.05;101852.91;10487599;28;20027;-64
2021/06/11 12:10:46;;;;;;;0.10;0.10;;;;;;;27.50;46.54;101846.44;10522849;28;20463;-64
2021/06/11 12:15:46;;;;;;;0.10;0.10;;;;;;;27.71;45.74;101841.28;10528772;28;20024;-63
2021/06/11 12:20:46;;;;;;;0.10;0.10;;;;;;;27.83;45.47;101839.31;10515529;28;20082;-63
2021/06/11 12:25:47;;;;;;;0.10;0.10;;;;;;;27.76;47.53;101841.38;10526223;28;20032;-61
2021/06/11 12:30:47;;;;;;;0.10;0.10;;;;;;;28.08;43.00;101843.53;10527853;28;20420;-65
2021/06/11 12:35:48;;;;;;;0.10;0.10;;;;;;;27.57;45.42;101837.22;10536934;28;20664;-63
2021/06/11 12:40:49;;;;;;;0.10;0.10;;;;;;;27.43;46.06;101840.31;10527550;28;20020;-62
2021/06/11 12:45:49;;;;;;;0.10;0.10;;;;;;;27.09;47.01;101829.28;10487029;28;20055;-64
2021/06/11 12:50:50;;;;;;;0.10;0.10;;;;;;;27.21;47.77;101833.88;10493651;28;20437;-64
2021/06/11 12:55:50;;;;;;;0.10;0.10;;;;;;;27.17;47.87;101829.97;10505601;28;20020;-65
2021/06/11 13:00:50;;;;;;;0.10;0.10;;;;;;;26.87;46.73;101823.66;10534909;28;20027;-64
2021/06/11 13:05:51;;;;;;;0.10;0.10;;;;;;;26.88;46.71;101829.97;10516927;28;20028;-64
2021/06/11 13:10:51;;;;;;;0.10;0.10;;;;;;;26.74;47.83;101828.59;10514590;28;20489;-64
2021/06/11 13:15:51;;;;;;;0.10;0.10;;;;;;;26.72;46.17;101828.81;10493531;28;20028;-65
2021/06/11 13:20:52;;;;;;;0.10;0.10;;;;;;;26.90;47.47;101816.03;10506700;28;20040;-66
2021/06/11 13:25:52;;;;;;;0.10;0.10;;;;;;;27.01;47.89;101821.47;10529339;28;20069;-64
2021/06/11 13:30:53;;;;;;;0.10;0.10;;;;;;;26.71;48.20;101816.25;10516842;28;20028;-64
2021/06/11 13:35:53;;;;;;;0.10;0.10;;;;;;;26.33;51.00;101825.00;10492677;28;20024;-63
2021/06/11 13:40:53;;;;;;;0.10;0.10;;;;;;;26.13;51.54;101820.75;10491134;28;20039;-64
2021/06/11 13:45:54;;;;;;;0.10;0.10;;;;;;;25.67;52.97;101830.56;10474005;28;20347;-64
2021/06/11 13:50:54;;;;;;;0.10;0.10;;;;;;;25.13;54.47;101845.19;10488906;28;20497;-63
2021/06/11 13:55:54;;;;;;;0.10;0.10;;;;;;;24.71;56.32;101834.25;10488822;28;20108;-63
2021/06/11 14:00:55;;;;;;;0.17;0.10;;;;;;;24.43;56.79;101840.22;10548695;22;20068;-68
2021/06/11 14:05:55;;;;;;;0.10;0.10;;;;;;;24.31;57.40;101840.13;10537728;28;20024;-67
2021/06/11 14:10:56;;;;;;;0.10;0.10;;;;;;;24.27;57.23;101838.94;10537092;28;20110;-68
2021/06/11 14:15:56;;;;;;;0.10;0.10;;;;;;;24.34;58.44;101839.66;10543425;28;20127;-68
2021/06/11 14:20:56;;;;;;;0.10;0.10;;;;;;;24.53;56.85;101846.00;10518207;28;20027;-67
2021/06/11 14:25:58;;;;;;;0.10;0.10;;;;;;;24.56;57.19;101848.25;10536780;28;20806;-67
2021/06/11 14:30:58;;;;;;;0.10;0.10;;;;;;;24.92;54.55;101841.09;10536051;28;20078;-67
2021/06/11 14:35:58;;;;;;;0.10;0.10;;;;;;;25.06;55.36;101843.41;10536564;28;20032;-65
2021/06/11 14:40:59;;;;;;;0.10;0.10;;;;;;;24.99;54.39;101850.03;10536188;28;20055;-69
2021/06/11 14:46:00;;;;;;;0.10;0.10;;;;;;;25.43;53.14;101842.50;10536035;28;20273;-69
2021/06/11 14:51:00;;;;;;;0.10;0.10;;;;;;;25.26;52.93;101842.34;10534892;28;20024;-67
2021/06/11 14:56:13;;;;;;;0.10;0.10;;;;;;;25.15;55.26;101837.66;10535865;28;20028;-67
2021/06/11 15:01:13;;;;;;;0.10;0.10;;;;;;;25.43;56.15;101834.31;10534102;28;20024;-67
2021/06/11 15:06:14;;;;;;;0.10;0.10;;;;;;;25.21;55.04;101831.28;10535474;28;20044;-66
2021/06/11 15:11:14;;;;;;;0.10;0.10;;;;;;;25.00;55.65;101827.16;10516576;28;20680;-65
2021/06/11 15:16:15;;;;;;;0.10;0.10;;;;;;;24.76;56.73;101823.50;10534781;28;20030;-65
2021/06/11 15:21:15;;;;;;;0.10;0.10;;;;;;;24.78;56.43;101814.03;10534800;28;20507;-66
2021/06/11 15:26:16;;;;;;;0.10;0.10;;;;;;;25.00;56.13;101806.19;10534132;28;20020;-65
2021/06/11 15:31:17;;;;;;;0.10;0.10;;;;;;;25.03;56.28;101799.44;10571915;28;20162;-67
2021/06/11 15:36:17;;;;;;;0.10;0.10;;;;;;;24.88;56.16;101793.59;10555589;28;20016;-67
2021/06/11 15:41:20;;;;;;;0.10;0.10;;;;;;;24.80;56.79;101797.44;10533412;28;20027;-66
2021/06/11 15:46:20;;;;;;;0.10;0.10;;;;;;;24.80;57.17;101790.09;10515654;28;20071;-66
2021/06/11 15:51:21;;;;;;;0.10;0.10;;;;;;;24.69;57.90;101788.16;10514696;28;20059;-66
2021/06/11 15:56:21;;;;;;;0.10;0.10;;;;;;;24.59;58.44;101774.25;10533332;28;20024;-66
2021/06/11 16:01:21;;;;;;;0.10;0.10;;;;;;;24.39;58.04;101782.66;10532864;28;20038;-67
2021/06/11 16:06:22;;;;;;;0.10;0.10;;;;;;;23.94;59.38;101783.78;10540352;28;20474;-66
2021/06/11 16:11:23;;;;;;;0.10;0.10;;;;;;;23.69;60.23;101786.50;10541930;28;20024;-66
2021/06/11 16:16:23;;;;;;;0.10;0.10;;;;;;;23.56;61.59;101778.47;10541784;28;20080;-70
2021/06/11 16:21:24;;;;;;;0.10;0.10;;;;;;;23.57;61.77;101780.13;10575202;28;20018;-70
2021/06/11 16:26:24;;;;;;;0.10;0.10;;;;;;;23.49;62.41;101781.22;10575057;28;20092;-68
2021/06/11 16:31:24;;;;;;;0.10;0.10;;;;;;;23.34;62.43;101783.44;10550687;28;20099;-68
2021/06/11 16:36:25;;;;;;;0.10;0.10;;;;;;;23.16;64.07;101794.25;10558218;28;20023;-69
2021/06/11 16:41:25;;;;;;;0.10;0.10;;;;;;;23.13;63.98;101790.09;10580699;28;20475;-69
2021/06/11 16:46:26;;;;;;;0.10;0.10;;;;;;;23.28;64.39;101784.31;10571285;28;20130;-69
2021/06/11 16:51:26;;;;;;;0.10;0.10;;;;;;;23.63;62.76;101779.22;10538522;28;20390;-67
2021/06/11 16:56:27;;;;;;;0.10;0.10;;;;;;;23.85;61.46;101770.66;10543802;28;20026;-67
2021/06/11 17:01:28;;;;;;;0.10;0.10;;;;;;;24.00;58.73;101781.19;10562382;28;20024;-67
2021/06/11 17:06:29;;;;;;;0.10;0.10;;;;;;;23.63;62.80;101776.50;10577560;28;20111;-67
2021/06/11 17:11:29;;;;;;;0.10;0.10;;;;;;;23.22;64.02;101786.03;10579854;28;20102;-67
2021/06/11 17:16:29;;;;;;;0.10;0.10;;;;;;;22.95;65.16;101793.53;10579774;28;20080;-66
2021/06/11 17:21:31;;;;;;;0.10;0.10;;;;;;;22.69;64.71;101799.91;10562821;28;20098;-68
2021/06/11 17:26:41;;;;;;;0.10;0.10;;;;;;;22.35;66.40;101803.78;10544185;28;20265;-67
2021/06/11 17:31:41;;;;;;;0.10;0.10;;;;;;;21.96;68.96;101805.50;10565626;28;20451;-68
2021/06/11 17:36:41;;;;;;;0.10;0.10;;;;;;;21.59;68.26;101815.97;10579539;28;20069;-67
2021/06/11 17:41:41;;;;;;;0.10;0.10;;;;;;;21.32;69.64;101827.78;10573176;28;20492;-68
2021/06/11 17:46:42;;;;;;;0.10;0.10;;;;;;;21.05;71.33;101829.63;10572270;28;20124;-67
2021/06/11 17:51:43;;;;;;;0.10;0.10;;;;;;;20.75;72.77;101829.94;10563502;28;20015;-73
2021/06/11 17:56:50;;;;;;;0.10;0.10;;;;;;;20.60;73.72;101840.09;10553807;28;20288;-66
2021/06/11 18:02:08;;;;;;;0.10;0.10;;;;;;;20.44;73.69;101843.91;10535522;28;20081;-68
2021/06/11 18:07:11;;;;;;;0.10;0.10;;;;;;;20.31;74.92;101848.22;10558725;28;20077;-67
2021/06/11 18:12:19;;;;;;;0.20;0.10;;;;;;;20.03;76.82;101853.63;10577764;28;20034;-69
2021/06/11 18:17:21;;;;;;;0.10;0.10;;;;;;;19.76;77.51;101858.00;10539542;28;20297;-71
2021/06/11 18:22:41;;;;;;;0.10;0.10;;;;;;;19.58;77.71;101849.50;10572879;28;20027;-67
2021/06/11 18:27:42;;;;;;;0.10;0.10;;;;;;;19.42;77.87;101864.09;10576885;28;20024;-67
2021/06/11 18:32:43;;;;;;;0.10;0.10;;;;;;;19.34;77.51;101875.00;10576702;28;20019;-67
2021/06/11 18:37:54;;;;;;;0.10;0.10;;;;;;;19.23;76.93;101869.09;10562855;28;20139;-67
2021/06/11 18:43:01;;;;;;;0.10;0.10;;;;;;;19.12;76.18;101866.06;10548141;28;20008;-67
2021/06/11 18:48:08;;;;;;;0.10;0.10;;;;;;;18.93;76.49;101873.72;10534579;28;20202;-67
2021/06/11 18:53:09;;;;;;;0.10;0.10;;;;;;;18.81;75.38;101882.50;10552479;28;20019;-66
2021/06/11 18:58:09;;;;;;;0.00;0.00;;;;;;;18.62;75.54;101871.22;10537754;28;20031;-66
2021/06/11 19:03:19;;;;;;;0.10;0.10;;;;;;;18.59;75.85;101860.81;10569264;28;20087;-66
2021/06/11 19:08:37;;;;;;;0.10;0.10;;;;;;;18.53;75.98;101867.78;10552103;28;20125;-66
2021/06/11 19:13:37;;;;;;;0.10;0.10;;;;;;;18.46;76.32;101863.31;10550310;28;20024;-69
2021/06/11 19:18:38;;;;;;;0.10;0.10;;;;;;;18.32;76.44;101852.34;10575660;28;20071;-67
2021/06/11 19:23:38;;;;;;;0.10;0.10;;;;;;;18.26;77.21;101860.31;10574001;28;20028;-67
2021/06/11 19:28:39;;;;;;;0.10;0.10;;;;;;;18.23;77.01;101858.00;10566500;28;20258;-67
2021/06/11 19:33:43;;;;;;;0.10;0.10;;;;;;;18.19;77.17;101856.69;10536053;28;20270;-66
2021/06/11 19:38:50;;;;;;;0.10;0.10;;;;;;;18.16;77.31;101865.16;10568830;28;20177;-66
2021/06/11 19:43:51;;;;;;;0.00;0.00;;;;;;;18.09;77.64;101871.28;10538456;28;20172;-66
2021/06/11 19:49:11;;;;;;;0.10;0.10;;;;;;;18.02;77.77;101864.09;10513717;28;20642;-70
2021/06/11 19:54:17;;;;;;;0.10;0.10;;;;;;;17.92;77.97;101858.13;10574249;28;20450;-64
2021/06/11 19:59:19;;;;;;;0.10;0.10;;;;;;;17.83;77.90;101863.63;10565201;22;20056;-63
2021/06/11 20:04:20;;;;;;;0.10;0.10;;;;;;;17.77;78.27;101860.75;10509998;28;20028;-61
2021/06/11 20:09:20;;;;;;;0.10;0.10;;;;;;;17.67;78.63;101860.19;10495888;28;20016;-65
2021/06/11 20:14:22;;;;;;;0.10;0.10;;;;;;;17.53;79.27;101862.63;10484231;28;20016;-63
2021/06/11 20:19:22;;;;;;;0.10;0.10;;;;;;;17.40;80.07;101851.63;10478146;28;20013;-64
2021/06/11 20:24:23;;;;;;;0.10;0.10;;;;;;;17.29;80.76;101862.81;10468221;28;20067;-64
2021/06/11 20:29:25;;;;;;;0.10;0.10;;;;;;;17.15;80.51;101851.78;10447245;28;20263;-64
2021/06/11 20:34:25;;;;;;;0.10;0.10;;;;;;;17.04;81.04;101848.63;10448003;28;20013;-65
2021/06/11 20:39:25;;;;;;;0.10;0.10;;;;;;;16.91;81.35;101843.84;10448344;28;20021;-64
2021/06/11 20:44:26;;;;;;;0.10;0.10;;;;;;;16.82;81.31;101847.59;10460836;28;20459;-63
2021/06/11 20:49:26;;;;;;;0.10;0.10;;;;;;;16.73;81.95;101846.75;10486744;28;20442;-63
2021/06/11 20:54:27;;;;;;;0.10;0.10;;;;;;;16.63;82.39;101841.56;10494101;28;20128;-62
2021/06/11 20:59:29;;;;;;;0.10;0.10;;;;;;;16.55;82.35;101822.81;10496505;28;20020;-64
2021/06/11 21:04:29;;;;;;;0.05;0.05;;;;;;;16.48;82.39;101829.88;10496471;28;20312;-63
2021/06/11 21:09:29;;;;;;;0.10;0.10;;;;;;;16.39;82.79;101833.59;10494964;28;20046;-64
2021/06/11 21:14:31;;;;;;;0.28;0.28;;;;;;;16.34;83.27;101838.66;10494555;28;20419;-63
2021/06/11 21:19:31;;;;;;;0.10;0.10;;;;;;;16.30;83.06;101835.47;10477697;28;20039;-65
2021/06/11 21:24:32;;;;;;;0.08;0.08;;;;;;;16.29;83.23;101825.75;10452984;28;20021;-64
2021/06/11 21:29:32;;;;;;;0.10;0.10;;;;;;;16.26;83.33;101832.31;10454789;28;20044;-64
2021/06/11 21:34:33;;;;;;;0.10;0.10;;;;;;;16.25;83.49;101829.78;10453923;28;20088;-63
2021/06/11 21:39:33;;;;;;;0.10;0.10;;;;;;;16.22;83.45;101830.94;10454349;28;20028;-64
2021/06/11 21:44:33;;;;;;;0.10;0.10;;;;;;;16.15;83.56;101832.66;10461109;28;20085;-63
2021/06/11 21:49:34;;;;;;;0.10;0.10;;;;;;;16.04;84.49;101827.63;10494884;28;20103;-63
2021/06/11 21:54:34;;;;;;;0.10;0.10;;;;;;;15.95;84.59;101825.97;10459413;28;20264;-62
2021/06/11 21:59:34;;;;;;;0.13;0.13;;;;;;;15.92;85.52;101832.53;10453177;28;20025;-63
2021/06/11 22:04:35;;;;;;;0.10;0.10;;;;;;;15.88;85.75;101835.72;10452479;28;20029;-62
2021/06/11 22:09:35;;;;;;;0.10;0.10;;;;;;;15.85;85.95;101834.19;10459448;28;20064;-63
2021/06/11 22:14:36;;;;;;;0.10;0.10;;;;;;;15.82;85.44;101840.78;10493475;28;20066;-61
2021/06/11 22:19:36;;;;;;;0.10;0.10;;;;;;;15.83;85.46;101837.06;10494229;28;20107;-61
2021/06/11 22:24:36;;;;;;;0.10;0.10;;;;;;;15.89;85.74;101826.66;10489940;28;20546;-61
2021/06/11 22:29:37;;;;;;;0.10;0.10;;;;;;;15.92;85.83;101827.16;10494234;28;20021;-63
2021/06/11 22:34:37;;;;;;;0.15;0.15;;;;;;;15.95;85.62;101823.28;10493835;28;20361;-62
2021/06/11 22:39:38;;;;;;;0.10;0.10;;;;;;;15.98;85.52;101825.63;10488091;28;20032;-63
2021/06/11 22:44:38;;;;;;;0.10;0.10;;;;;;;15.98;85.63;101804.97;10486770;28;20108;-62
2021/06/11 22:49:38;;;;;;;0.10;0.10;;;;;;;16.00;85.66;101815.56;10492775;28;20028;-63
2021/06/11 22:54:38;;;;;;;0.10;0.10;;;;;;;16.06;85.53;101814.88;10492338;28;20028;-63
2021/06/11 22:59:39;;;;;;;0.10;0.10;;;;;;;16.16;85.24;101818.19;10464521;28;20029;-63
2021/06/11 23:04:39;;;;;;;0.10;0.10;;;;;;;16.21;85.72;101818.53;10473798;28;20055;-63
2021/06/11 23:09:39;;;;;;;0.10;0.10;;;;;;;16.24;85.15;101820.03;10483507;28;20033;-62
2021/06/11 23:14:40;;;;;;;0.10;0.10;;;;;;;16.26;85.70;101809.94;10488782;28;20050;-61